createdAt,value
2022-08-24T00:00:14.571Z,9.65
2022-08-24T00:02:41.611Z,7.88
2022-08-24T00:05:14.431Z,5.80
2022-08-24T00:07:41.728Z,4.97
2022-08-24T00:10:10.516Z,4.80
2022-08-24T00:12:37.489Z,5.22
2022-08-24T00:15:05.971Z,4.38
2022-08-24T00:17:35.057Z,14.57
2022-08-24T00:20:02.661Z,7.63
2022-08-24T00:22:30.702Z,7.05
2022-08-24T00:24:57.485Z,11.45
2022-08-24T00:27:24.418Z,8.85
2022-08-24T00:29:51.105Z,4.90
2022-08-24T00:32:17.780Z,5.80
2022-08-24T00:34:45.927Z,4.18
2022-08-24T00:37:28.492Z,4.15
2022-08-24T00:39:56.013Z,4.65
2022-08-24T00:42:23.686Z,6.07
2022-08-24T00:44:50.476Z,7.18
2022-08-24T00:47:23.959Z,5.78
2022-08-24T00:49:59.695Z,6.47
2022-08-24T00:52:35.407Z,11.23
2022-08-24T00:55:12.273Z,7.28
2022-08-24T00:57:43.146Z,8.80
2022-08-24T01:00:22.037Z,8.27
2022-08-24T01:02:55.047Z,4.50
2022-08-24T01:05:21.765Z,4.25
2022-08-24T01:07:50.549Z,5.53
2022-08-24T01:10:21.317Z,6.63
2022-08-24T01:13:00.427Z,6.57
2022-08-24T01:15:30.775Z,6.95
2022-08-24T01:18:17.286Z,5.10
2022-08-24T01:20:48.776Z,4.32
2022-08-24T01:23:36.373Z,8.13
2022-08-24T01:26:05.653Z,5.82
2022-08-24T01:28:34.404Z,5.30
2022-08-24T01:31:04.237Z,6.85
2022-08-24T01:33:32.051Z,7.93
2022-08-24T01:36:09.588Z,8.40
2022-08-24T01:38:36.615Z,8.05
2022-08-24T01:41:04.731Z,5.57
2022-08-24T01:43:32.214Z,10.40
2022-08-24T01:46:06.307Z,9.13
2022-08-24T01:48:33.444Z,9.90
2022-08-24T01:51:00.171Z,8.77
2022-08-24T01:53:27.136Z,5.78
2022-08-24T01:55:54.072Z,7.47
2022-08-24T01:58:20.815Z,10.40
2022-08-24T02:00:47.762Z,9.05
2022-08-24T02:03:14.710Z,7.25
2022-08-24T02:05:44.842Z,8.38
2022-08-24T02:08:15.041Z,5.68
2022-08-24T02:10:41.864Z,9.77
2022-08-24T02:13:15.888Z,6.72
2022-08-24T02:15:42.655Z,10.55
2022-08-24T02:18:15.615Z,7.82
2022-08-24T02:20:43.512Z,9.43
2022-08-24T02:23:10.293Z,10.05
2022-08-24T02:25:37.087Z,6.60
2022-08-24T02:28:04.536Z,10.40
2022-08-24T02:30:32.079Z,9.80
2022-08-24T02:32:59.319Z,7.47
2022-08-24T02:35:29.635Z,10.88
2022-08-24T02:37:57.695Z,7.82
2022-08-24T02:40:26.095Z,11.48
2022-08-24T02:42:53.542Z,7.32
2022-08-24T02:45:21.792Z,6.88
2022-08-24T02:47:48.529Z,6.82
2022-08-24T02:50:17.726Z,8.57
2022-08-24T02:52:45.356Z,7.40
2022-08-24T02:55:15.846Z,12.93
2022-08-24T02:57:47.894Z,7.68
2022-08-24T03:00:21.313Z,7.70
2022-08-24T03:02:52.449Z,10.93
2022-08-24T03:05:20.705Z,7.63
2022-08-24T03:07:47.842Z,5.80
2022-08-24T03:10:15.211Z,7.03
2022-08-24T03:12:42.378Z,4.88
2022-08-24T03:15:11.378Z,7.05
2022-08-24T03:17:39.845Z,11.02
2022-08-24T03:20:10.965Z,9.38
2022-08-24T03:22:38.808Z,8.07
2022-08-24T03:25:06.686Z,9.30
2022-08-24T03:27:33.426Z,6.88
2022-08-24T03:30:01.191Z,6.38
2022-08-24T03:32:33.203Z,6.03
2022-08-24T03:35:01.895Z,8.25
2022-08-24T03:37:29.886Z,8.68
2022-08-24T03:39:56.623Z,6.70
2022-08-24T03:42:23.427Z,13.32
2022-08-24T03:44:50.258Z,9.23
2022-08-24T03:47:18.817Z,11.65
2022-08-24T03:49:45.854Z,5.72
2022-08-24T03:52:12.789Z,7.20
2022-08-24T03:54:40.629Z,5.60
2022-08-24T03:57:07.942Z,5.47
2022-08-24T03:59:34.858Z,4.18
2022-08-24T04:02:08.026Z,4.25
2022-08-24T04:04:36.969Z,5.78
2022-08-24T04:07:04.617Z,8.32
2022-08-24T04:09:32.457Z,6.03
2022-08-24T04:11:59.375Z,11.40
2022-08-24T04:14:27.884Z,8.68
2022-08-24T04:17:20.707Z,5.72
2022-08-24T04:20:00.436Z,13.68
2022-08-24T04:22:34.164Z,6.13
2022-08-24T04:25:01.038Z,13.80
2022-08-24T04:27:30.863Z,11.30
2022-08-24T04:29:57.664Z,6.97
2022-08-24T04:32:27.582Z,7.40
2022-08-24T04:34:56.232Z,9.05
2022-08-24T04:37:28.178Z,8.13
2022-08-24T04:39:56.868Z,11.30
2022-08-24T04:42:33.469Z,9.10
2022-08-24T04:45:00.881Z,14.05
2022-08-24T04:47:27.607Z,8.00
2022-08-24T04:49:54.449Z,12.18
2022-08-24T04:52:21.422Z,9.95
2022-08-24T04:54:48.177Z,9.55
2022-08-24T04:57:21.573Z,11.43
2022-08-24T04:59:49.134Z,13.35
2022-08-24T05:02:16.637Z,14.43
2022-08-24T05:04:46.896Z,12.35
2022-08-24T05:07:13.811Z,14.85
2022-08-24T05:09:43.363Z,7.65
2022-08-24T05:12:11.785Z,11.60
2022-08-24T05:14:44.158Z,10.40
2022-08-24T05:17:10.959Z,8.25
2022-08-24T05:19:37.823Z,8.05
2022-08-24T05:22:05.344Z,14.88
2022-08-24T05:24:32.389Z,10.98
2022-08-24T05:27:00.652Z,12.45
2022-08-24T05:29:28.180Z,7.55
2022-08-24T05:31:57.167Z,12.45
2022-08-24T05:34:24.590Z,11.73
2022-08-24T05:36:52.043Z,14.80
2022-08-24T05:39:31.038Z,15.32
2022-08-24T05:41:59.794Z,13.68
2022-08-24T05:44:31.365Z,16.67
2022-08-24T05:47:01.455Z,21.92
2022-08-24T05:49:28.829Z,23.63
2022-08-24T05:51:55.669Z,16.90
2022-08-24T05:54:23.572Z,21.67
2022-08-24T05:57:04.569Z,21.63
2022-08-24T05:59:37.785Z,22.52
2022-08-24T06:02:10.101Z,20.27
2022-08-24T06:04:38.251Z,21.45
2022-08-24T06:07:10.689Z,15.52
2022-08-24T06:09:41.632Z,19.05
2022-08-24T06:12:10.301Z,14.95
2022-08-24T06:14:37.037Z,14.07
2022-08-24T06:17:08.390Z,10.75
2022-08-24T06:19:36.139Z,13.05
2022-08-24T06:22:03.576Z,16.00
2022-08-24T06:24:49.621Z,11.50
2022-08-24T06:27:21.029Z,19.65
2022-08-24T06:29:52.224Z,13.93
2022-08-24T06:32:38.713Z,10.55
2022-08-24T06:35:07.909Z,15.15
2022-08-24T06:37:38.473Z,12.00
2022-08-24T06:40:07.507Z,8.38
2022-08-24T06:42:35.319Z,10.70
2022-08-24T06:45:03.109Z,11.73
2022-08-24T06:47:30.929Z,10.07
2022-08-24T06:50:00.484Z,10.80
2022-08-24T06:52:30.077Z,13.85
2022-08-24T06:54:57.399Z,9.18
2022-08-24T06:57:24.303Z,8.98
2022-08-24T06:59:53.075Z,15.82
2022-08-24T07:02:19.969Z,11.45
2022-08-24T07:04:47.524Z,12.20
2022-08-24T07:07:32.656Z,12.32
2022-08-24T07:10:01.055Z,8.02
2022-08-24T07:12:27.815Z,19.88
2022-08-24T07:14:55.217Z,15.70
2022-08-24T07:17:22.963Z,8.40
2022-08-24T07:19:50.168Z,9.60
2022-08-24T07:22:36.807Z,12.93
2022-08-24T07:25:04.133Z,17.55
2022-08-24T07:27:31.614Z,11.80
2022-08-24T07:30:23.077Z,20.98
2022-08-24T07:32:45.039Z,17.70
2022-08-24T07:35:11.919Z,15.02
2022-08-24T07:37:41.343Z,14.30
2022-08-24T07:40:10.057Z,14.15
2022-08-24T07:42:37.103Z,16.02
2022-08-24T07:45:04.153Z,11.13
2022-08-24T07:47:42.332Z,11.98
2022-08-24T07:50:22.871Z,9.32
2022-08-24T07:52:49.568Z,9.05
2022-08-24T07:55:16.728Z,8.63
2022-08-24T07:57:45.212Z,10.77
2022-08-24T08:00:15.973Z,11.52
2022-08-24T08:02:47.336Z,12.48
2022-08-24T08:05:19.804Z,11.88
2022-08-24T08:08:02.171Z,15.20
2022-08-24T08:10:31.008Z,51.83
2022-08-24T08:12:58.153Z,46.78
2022-08-24T08:15:26.599Z,26.95
2022-08-24T08:18:00.193Z,26.02
2022-08-24T08:20:27.053Z,24.45
2022-08-24T08:23:12.481Z,10.00
2022-08-24T08:26:16.453Z,13.10
2022-08-24T08:28:54.819Z,15.35
2022-08-24T08:31:21.593Z,26.08
2022-08-24T08:33:49.028Z,29.92
2022-08-24T08:36:17.144Z,18.58
2022-08-24T08:38:49.162Z,13.98
2022-08-24T08:41:17.749Z,10.52
2022-08-24T08:44:08.764Z,50.35
2022-08-24T08:47:00.625Z,25.63
2022-08-24T08:50:04.415Z,20.05
2022-08-24T08:53:03.201Z,18.23
2022-08-24T08:55:47.637Z,12.98
2022-08-24T08:58:18.171Z,10.40
2022-08-24T09:01:33.044Z,8.05
2022-08-24T09:04:21.648Z,13.55
2022-08-24T09:07:21.702Z,15.02
2022-08-24T09:10:12.770Z,9.57
2022-08-24T09:13:02.836Z,8.55
2022-08-24T09:15:39.953Z,46.30
2022-08-24T09:18:13.943Z,20.42
2022-08-24T09:20:49.714Z,17.08
2022-08-24T09:23:38.537Z,10.02
2022-08-24T09:26:29.234Z,11.73
2022-08-24T09:29:11.939Z,7.53
2022-08-24T09:31:43.831Z,11.27
2022-08-24T09:34:24.909Z,12.52
2022-08-24T09:37:04.796Z,12.07
2022-08-24T09:39:36.631Z,9.68
2022-08-24T09:42:30.619Z,10.38
2022-08-24T09:45:16.270Z,10.25
2022-08-24T09:48:21.042Z,8.45
2022-08-24T09:51:12.030Z,14.25
2022-08-24T09:54:00.128Z,6.40
2022-08-24T09:56:47.057Z,15.00
2022-08-24T09:59:23.299Z,12.85
2022-08-24T10:02:22.656Z,10.15
2022-08-24T10:05:14.165Z,33.35
2022-08-24T10:07:55.820Z,13.07
2022-08-24T10:11:10.594Z,8.98
2022-08-24T10:14:06.576Z,8.10
2022-08-24T10:17:07.875Z,14.10
2022-08-24T10:20:05.619Z,11.10
2022-08-24T10:22:58.289Z,9.90
2022-08-24T10:25:34.945Z,15.65
2022-08-24T10:28:27.706Z,26.70
2022-08-24T10:31:12.947Z,11.20
2022-08-24T10:34:07.069Z,46.53
2022-08-24T10:36:42.738Z,19.67
2022-08-24T10:39:43.863Z,13.45
2022-08-24T10:42:48.407Z,12.35
2022-08-24T10:45:32.055Z,9.15
2022-08-24T10:48:33.499Z,12.07
2022-08-24T10:51:36.174Z,16.30
2022-08-24T10:54:04.399Z,15.80
2022-08-24T10:57:11.592Z,7.70
2022-08-24T10:59:59.283Z,9.60
2022-08-24T11:02:37.287Z,5.45
2022-08-24T11:05:08.595Z,9.63
2022-08-24T11:07:37.563Z,3.40
2022-08-24T11:10:08.427Z,5.18
2022-08-24T11:12:41.468Z,4.78
2022-08-24T11:15:22.074Z,2.40
2022-08-24T11:17:56.698Z,2.35
2022-08-24T11:20:36.540Z,4.95
2022-08-24T11:23:07.826Z,4.47
2022-08-24T11:25:41.968Z,8.88
2022-08-24T11:28:20.597Z,5.93
2022-08-24T11:30:47.590Z,9.75
2022-08-24T11:33:49.657Z,7.57
2022-08-24T11:36:25.852Z,6.20
2022-08-24T11:39:23.678Z,4.15
2022-08-24T11:41:57.341Z,9.20
2022-08-24T11:44:49.765Z,4.53
2022-08-24T11:47:40.465Z,12.13
2022-08-24T11:50:31.200Z,7.03
2022-08-24T11:56:28.550Z,4.97
2022-08-24T11:59:26.754Z,9.57
2022-08-24T12:01:59.671Z,7.35
2022-08-24T12:04:40.622Z,7.03
2022-08-24T12:07:23.057Z,3.92
2022-08-24T12:10:22.043Z,3.40
2022-08-24T12:12:58.591Z,3.78
2022-08-24T12:15:57.192Z,4.63
2022-08-24T12:18:39.312Z,2.30
2022-08-24T12:21:12.565Z,4.30
2022-08-24T12:23:43.657Z,4.20
2022-08-24T12:26:17.185Z,6.90
2022-08-24T12:28:54.195Z,3.78
2022-08-24T12:31:45.731Z,10.35
2022-08-24T12:34:29.964Z,14.85
2022-08-24T12:37:16.400Z,18.48
2022-08-24T12:40:08.856Z,16.27
2022-08-24T12:42:49.882Z,20.10
2022-08-24T12:45:20.854Z,9.40
2022-08-24T12:48:14.746Z,16.17
2022-08-24T12:51:26.893Z,11.73
2022-08-24T12:54:18.208Z,24.17
2022-08-24T12:57:07.819Z,20.38
2022-08-24T12:59:45.315Z,13.35
2022-08-24T13:02:15.163Z,7.70
2022-08-24T13:04:51.174Z,5.43
2022-08-24T13:07:23.992Z,3.63
2022-08-24T13:09:56.771Z,3.45
2022-08-24T13:12:41.281Z,4.97
2022-08-24T13:15:23.506Z,2.38
2022-08-24T13:18:20.170Z,8.50
2022-08-24T13:20:49.949Z,2.63
2022-08-24T13:23:20.700Z,10.18
2022-08-24T13:25:47.312Z,3.80
2022-08-24T13:28:20.277Z,2.83
2022-08-24T13:30:53.516Z,2.38
2022-08-24T13:33:43.542Z,8.63
2022-08-24T13:36:29.132Z,5.15
2022-08-24T13:39:17.497Z,4.30
2022-08-24T13:42:14.276Z,3.33
2022-08-24T13:45:01.332Z,5.15
2022-08-24T13:47:52.107Z,3.25
2022-08-24T13:50:43.815Z,4.28
2022-08-24T13:53:35.143Z,3.55
2022-08-24T13:56:31.007Z,4.57
2022-08-24T13:59:31.009Z,4.93
2022-08-24T14:02:21.091Z,2.13
2022-08-24T14:05:29.607Z,4.63
2022-08-24T14:08:27.417Z,3.38
2022-08-24T14:11:14.596Z,4.18
2022-08-24T14:14:03.287Z,28.60
2022-08-24T14:17:24.140Z,17.38
2022-08-24T14:20:22.255Z,25.27
2022-08-24T14:22:51.974Z,13.98
2022-08-24T14:25:23.198Z,25.58
2022-08-24T14:27:58.912Z,29.90
2022-08-24T14:30:25.688Z,10.35
2022-08-24T14:32:59.647Z,7.43
2022-08-24T14:35:34.344Z,4.18
2022-08-24T14:38:53.632Z,6.03
2022-08-24T14:41:52.228Z,5.43
2022-08-24T14:44:48.600Z,3.28
2022-08-24T14:47:33.594Z,2.97
2022-08-24T14:50:38.230Z,3.40
2022-08-24T14:53:18.820Z,5.05
2022-08-24T14:56:06.035Z,4.75
2022-08-24T14:59:01.956Z,5.18
2022-08-24T15:01:39.279Z,3.65
2022-08-24T15:04:37.444Z,3.35
2022-08-24T15:07:23.171Z,41.05
2022-08-24T15:09:51.819Z,52.30
2022-08-24T15:12:58.061Z,77.85
2022-08-24T15:15:49.857Z,108.18
2022-08-24T15:18:37.038Z,28.08
2022-08-24T15:21:16.521Z,15.65
2022-08-24T15:24:28.345Z,23.15
2022-08-24T15:27:27.311Z,13.18
2022-08-24T15:29:58.300Z,17.55
2022-08-24T15:32:43.597Z,6.15
2022-08-24T15:35:27.100Z,9.23
2022-08-24T15:37:54.692Z,9.18
2022-08-24T15:40:31.666Z,4.93
2022-08-24T15:43:03.854Z,4.50
2022-08-24T15:45:32.238Z,5.20
2022-08-24T15:48:01.037Z,3.45
2022-08-24T15:50:34.899Z,3.65
2022-08-24T15:53:07.251Z,3.80
2022-08-24T15:55:46.471Z,5.03
2022-08-24T15:58:34.803Z,2.75
2022-08-24T16:01:38.091Z,7.10
2022-08-24T16:04:46.429Z,3.00
2022-08-24T16:07:25.506Z,5.03
2022-08-24T16:10:08.832Z,7.93
2022-08-24T16:12:36.397Z,3.95
2022-08-24T16:15:17.332Z,5.05
2022-08-24T16:17:51.462Z,4.45
2022-08-24T16:20:24.593Z,3.08
2022-08-24T16:23:00.773Z,2.45
2022-08-24T16:25:31.618Z,7.07
2022-08-24T16:28:07.717Z,2.72
2022-08-24T16:30:43.142Z,2.83
2022-08-24T16:33:30.723Z,2.95
2022-08-24T16:36:03.267Z,4.47
2022-08-24T16:38:32.382Z,2.80
2022-08-24T16:41:02.107Z,4.40
2022-08-24T16:43:29.747Z,1.83
2022-08-24T16:45:57.984Z,2.83
2022-08-24T16:48:24.696Z,4.55
2022-08-24T16:50:51.377Z,4.25
2022-08-24T16:53:18.149Z,2.65
2022-08-24T16:55:45.023Z,2.83
2022-08-24T16:58:11.981Z,7.55
2022-08-24T17:00:38.739Z,2.72
2022-08-24T17:03:05.612Z,1.95
2022-08-24T17:05:33.072Z,3.97
2022-08-24T17:08:01.754Z,4.30
2022-08-24T17:10:28.431Z,1.60
2022-08-24T17:12:55.306Z,2.75
2022-08-24T17:15:23.529Z,3.67
2022-08-24T17:17:58.502Z,1.65
2022-08-24T17:20:25.922Z,2.88
2022-08-24T17:22:52.877Z,2.38
2022-08-24T17:25:19.719Z,4.32
2022-08-24T17:27:47.565Z,3.22
2022-08-24T17:30:18.457Z,4.13
2022-08-24T17:32:45.229Z,4.15
2022-08-24T17:35:12.824Z,3.30
2022-08-24T17:37:39.798Z,3.50
2022-08-24T17:40:10.556Z,2.35
2022-08-24T17:42:50.995Z,4.28
2022-08-24T17:45:19.104Z,4.05
2022-08-24T17:47:46.318Z,4.38
2022-08-24T17:50:14.791Z,4.13
2022-08-24T17:52:42.518Z,3.22
2022-08-24T17:55:11.775Z,3.00
2022-08-24T17:57:39.486Z,2.75
2022-08-24T18:00:09.993Z,3.15
2022-08-24T18:02:40.204Z,2.85
2022-08-24T18:05:08.476Z,4.07
2022-08-24T18:07:52.524Z,4.63
2022-08-24T18:10:23.859Z,1.80
2022-08-24T18:12:50.791Z,2.45
2022-08-24T18:15:18.022Z,8.20
2022-08-24T18:17:48.508Z,5.50
2022-08-24T18:20:25.859Z,5.57
2022-08-24T18:22:53.827Z,3.85
2022-08-24T18:25:23.116Z,3.08
2022-08-24T18:27:53.274Z,2.63
2022-08-24T18:30:30.408Z,3.08
2022-08-24T18:32:59.867Z,5.78
2022-08-24T18:35:26.648Z,3.90
2022-08-24T18:37:53.253Z,5.85
2022-08-24T18:40:21.674Z,3.35
2022-08-24T18:42:50.936Z,4.45
2022-08-24T18:45:18.400Z,2.65
2022-08-24T18:47:45.411Z,5.50
2022-08-24T18:50:21.095Z,8.00
2022-08-24T18:52:48.043Z,4.18
2022-08-24T18:55:15.277Z,2.40
2022-08-24T18:57:42.127Z,13.15
2022-08-24T19:00:10.415Z,28.80
2022-08-24T19:02:38.008Z,12.50
2022-08-24T19:05:11.350Z,17.35
2022-08-24T19:07:41.565Z,32.78
2022-08-24T19:10:10.092Z,14.95
2022-08-24T19:12:42.557Z,27.02
2022-08-24T19:15:29.408Z,31.27
2022-08-24T19:18:03.134Z,24.85
2022-08-24T19:20:32.596Z,27.15
2022-08-24T19:23:07.134Z,22.52
2022-08-24T19:25:35.300Z,16.08
2022-08-24T19:28:02.557Z,17.23
2022-08-24T19:30:29.306Z,7.18
2022-08-24T19:32:57.623Z,25.50
2022-08-24T19:35:24.279Z,8.65
2022-08-24T19:37:51.013Z,9.95
2022-08-24T19:40:20.736Z,15.10
2022-08-24T19:42:50.765Z,9.70
2022-08-24T19:45:40.690Z,7.03
2022-08-24T19:48:07.453Z,7.65
2022-08-24T19:50:35.965Z,5.50
2022-08-24T19:53:04.783Z,5.72
2022-08-24T19:55:32.750Z,4.57
2022-08-24T19:58:20.491Z,5.43
2022-08-24T20:00:57.653Z,3.03
2022-08-24T20:03:24.986Z,37.63
2022-08-24T20:05:51.820Z,20.13
2022-08-24T20:08:21.734Z,22.80
2022-08-24T20:10:49.659Z,19.92
2022-08-24T20:13:16.954Z,8.98
2022-08-24T20:15:43.678Z,7.18
2022-08-24T20:18:10.716Z,16.98
2022-08-24T20:20:37.735Z,14.68
2022-08-24T20:23:06.418Z,37.03
2022-08-24T20:25:36.188Z,41.30
2022-08-24T20:28:28.291Z,31.35
2022-08-24T20:30:52.235Z,15.82
2022-08-24T20:33:21.128Z,11.93
2022-08-24T20:35:47.915Z,9.90
2022-08-24T20:38:18.160Z,4.68
2022-08-24T20:40:45.955Z,5.15
2022-08-24T20:43:12.961Z,5.35
2022-08-24T20:45:41.623Z,2.97
2022-08-24T20:48:12.049Z,6.38
2022-08-24T20:50:43.098Z,4.70
2022-08-24T20:53:11.334Z,2.80
2022-08-24T20:55:39.715Z,3.83
2022-08-24T20:58:06.759Z,4.35
2022-08-24T21:00:34.301Z,8.00
2022-08-24T21:03:01.082Z,2.40
2022-08-24T21:05:28.093Z,5.50
2022-08-24T21:07:57.649Z,8.27
2022-08-24T21:10:26.465Z,7.65
2022-08-24T21:12:54.296Z,2.88
2022-08-24T21:15:22.378Z,18.42
2022-08-24T21:17:50.260Z,36.60
2022-08-24T21:20:18.276Z,42.42
2022-08-24T21:22:46.064Z,47.15
2022-08-24T21:25:14.577Z,49.78
2022-08-24T21:27:44.104Z,39.90
2022-08-24T21:30:14.630Z,18.27
2022-08-24T21:33:00.053Z,15.02
2022-08-24T21:35:27.322Z,12.15
2022-08-24T21:37:54.135Z,8.23
2022-08-24T21:40:21.806Z,8.32
2022-08-24T21:42:48.866Z,5.80
2022-08-24T21:45:16.110Z,6.53
2022-08-24T21:47:42.947Z,5.28
2022-08-24T21:50:09.944Z,5.38
2022-08-24T21:52:37.196Z,5.18
2022-08-24T21:55:05.553Z,3.58
2022-08-24T21:57:32.237Z,3.42
2022-08-24T21:59:59.143Z,4.22
2022-08-24T22:02:26.085Z,6.47
2022-08-24T22:04:56.884Z,4.60
2022-08-24T22:07:24.471Z,3.75
2022-08-24T22:09:51.296Z,4.50
2022-08-24T22:12:18.459Z,5.30
2022-08-24T22:14:45.181Z,5.65
2022-08-24T22:17:11.908Z,3.08
2022-08-24T22:19:39.167Z,3.92
2022-08-24T22:22:06.159Z,4.40
2022-08-24T22:24:32.813Z,7.50
2022-08-24T22:26:59.712Z,3.10
2022-08-24T22:29:26.379Z,6.78
2022-08-24T22:31:53.065Z,11.63
2022-08-24T22:34:21.031Z,27.15
2022-08-24T22:36:49.231Z,21.20
2022-08-24T22:39:16.515Z,18.92
2022-08-24T22:41:44.287Z,7.55
2022-08-24T22:44:20.173Z,12.65
2022-08-24T22:46:51.106Z,26.58
2022-08-24T22:49:20.517Z,29.05
2022-08-24T22:51:48.030Z,49.00
2022-08-24T22:54:16.054Z,59.50
2022-08-24T22:56:45.821Z,51.40
2022-08-24T22:59:18.920Z,71.10
2022-08-24T23:01:48.712Z,49.72
2022-08-24T23:04:19.517Z,28.55
2022-08-24T23:06:46.586Z,17.13
2022-08-24T23:09:13.562Z,13.63
2022-08-24T23:11:40.321Z,9.05
2022-08-24T23:14:09.027Z,10.82
2022-08-24T23:16:38.964Z,7.40
2022-08-24T23:19:26.681Z,5.15
2022-08-24T23:21:53.886Z,6.63
2022-08-24T23:24:21.731Z,6.35
2022-08-24T23:26:48.747Z,7.05
2022-08-24T23:29:16.595Z,6.85
2022-08-24T23:31:44.270Z,4.55
2022-08-24T23:34:11.201Z,6.82
2022-08-24T23:36:39.176Z,5.20
2022-08-24T23:39:08.269Z,4.93
2022-08-24T23:41:38.820Z,4.93
2022-08-24T23:52:43.332Z,4.10
2022-08-24T23:55:19.996Z,4.13
2022-08-24T23:57:47.443Z,4.55
